Burchard, Nebraska
Current Conditions -  °F | °C
As of 4:15 PM on Saturday 25 Oct 2014 (Local Time) from KBIE Reporting Station
Clear Clear  
Wind Chill: 76°   Ceiling: Unl
Heat Index: 76°   Visibility: 10mi
Dew Point: 47°   Wind: 7mph
Humidity: 36%   Direction: 90°E
Pressure: 30.03"   Gusts: NA
Location:  40.15°N, 96.35°W
Report Text: KBIE 252115Z AUTO 09006KT 10SM CLR 24/08 A3003 RMK AO2 T02440084
Loading
Personal Weather Stations






























Interactive Weather Map
Tropical Storm Tracking
New forecast layout! Learn more

10-Day Weather Forecast

Advertisements
Track Severe Weather on mobile